createdAt,value
2022-12-22T04:01:50.649Z,100.00
2022-12-22T04:05:00.652Z,100.00
2022-12-22T04:08:10.358Z,100.00
2022-12-22T04:11:31.246Z,100.00
2022-12-22T04:14:40.963Z,100.00
2022-12-22T04:17:52.504Z,100.00
2022-12-22T04:21:02.334Z,100.00
2022-12-22T04:24:12.929Z,100.00
2022-12-22T04:27:22.629Z,100.00
2022-12-22T04:30:32.287Z,100.00
2022-12-22T04:33:43.353Z,100.00
2022-12-22T04:36:53.041Z,100.00
2022-12-22T04:40:02.947Z,100.00
2022-12-22T04:43:15.161Z,100.00
2022-12-22T04:46:24.925Z,100.00
2022-12-22T04:49:35.941Z,100.00
2022-12-22T04:52:45.622Z,100.00
2022-12-22T04:55:59.310Z,100.00
2022-12-22T04:59:09.065Z,100.00
2022-12-22T05:02:18.930Z,100.00
2022-12-22T05:05:29.949Z,100.00
2022-12-22T05:08:40.228Z,100.00
2022-12-22T05:11:49.975Z,100.00
2022-12-22T05:14:59.614Z,100.00
2022-12-22T05:18:09.440Z,100.00
2022-12-22T05:21:22.210Z,100.00
2022-12-22T05:24:31.932Z,100.00
2022-12-22T05:27:41.561Z,100.00
2022-12-22T05:30:51.295Z,100.00
2022-12-22T05:34:01.017Z,100.00
2022-12-22T05:37:12.032Z,100.00
2022-12-22T05:40:24.676Z,100.00
2022-12-22T05:43:35.312Z,100.00
2022-12-22T05:46:45.130Z,100.00
2022-12-22T05:49:54.849Z,100.00
2022-12-22T05:53:06.409Z,100.00
2022-12-22T05:56:16.100Z,100.00
2022-12-22T05:59:25.870Z,100.00
2022-12-22T07:47:00.202Z,100.00
2022-12-22T07:50:24.416Z,100.00
2022-12-22T07:53:35.027Z,100.00
2022-12-22T07:56:45.635Z,100.00
2022-12-22T07:59:55.465Z,100.00
2022-12-22T08:03:07.171Z,100.00
2022-12-22T08:06:16.986Z,100.00
2022-12-22T08:09:26.657Z,100.00
2022-12-22T08:12:36.670Z,100.00
2022-12-22T08:15:46.467Z,100.00
2022-12-22T08:18:58.191Z,100.00
2022-12-22T08:22:07.917Z,100.00
2022-12-22T08:25:18.402Z,100.00
2022-12-22T08:28:29.160Z,100.00
2022-12-22T08:31:40.856Z,100.00
2022-12-22T08:34:53.358Z,100.00
2022-12-22T08:38:03.699Z,100.00
2022-12-22T08:41:36.754Z,100.00
2022-12-22T08:44:52.225Z,100.00
2022-12-22T08:48:01.909Z,100.00
2022-12-22T08:51:13.148Z,100.00
2022-12-22T08:54:23.515Z,100.00
2022-12-22T08:57:33.275Z,100.00
2022-12-22T09:00:43.063Z,100.00
2022-12-22T09:03:55.212Z,100.00
2022-12-22T09:07:06.650Z,100.00
2022-12-22T09:10:16.912Z,100.00
2022-12-22T09:13:26.709Z,100.00
2022-12-22T09:16:37.072Z,100.00
2022-12-22T09:19:46.833Z,100.00
2022-12-22T09:22:57.996Z,100.00
2022-12-22T09:26:08.971Z,100.00
2022-12-22T09:29:18.895Z,100.00
2022-12-22T09:32:29.051Z,100.00
2022-12-22T09:35:41.956Z,100.00
2022-12-22T09:38:53.075Z,100.00
2022-12-22T09:42:02.844Z,100.00
2022-12-22T09:45:19.886Z,100.00
2022-12-22T09:48:36.825Z,100.00
2022-12-22T09:51:53.028Z,100.00
2022-12-22T09:55:13.477Z,100.00
2022-12-22T09:58:27.185Z,100.00
2022-12-22T10:01:50.542Z,100.00
2022-12-22T10:05:11.983Z,100.00
2022-12-22T10:08:28.351Z,100.00
2022-12-22T10:11:39.350Z,100.00
2022-12-22T10:14:51.493Z,100.00
2022-12-22T10:18:11.671Z,100.00
2022-12-22T10:21:23.745Z,100.00
2022-12-22T10:24:37.085Z,100.00
2022-12-22T10:27:51.459Z,100.00
2022-12-22T10:31:13.798Z,100.00
2022-12-22T10:34:23.801Z,100.00
2022-12-22T10:37:37.585Z,98.86
2022-12-22T10:40:50.304Z,100.00
2022-12-22T10:44:05.360Z,100.00
2022-12-22T10:47:18.264Z,100.00
2022-12-22T10:50:28.210Z,100.00
2022-12-22T10:53:45.521Z,100.00
2022-12-22T10:57:03.024Z,100.00
2022-12-22T11:00:26.840Z,100.00
2022-12-22T11:03:36.610Z,100.00
2022-12-22T11:06:46.810Z,100.00
2022-12-22T11:09:57.743Z,99.38
2022-12-22T11:13:24.767Z,96.36
2022-12-22T11:16:47.080Z,98.23
2022-12-22T11:20:15.456Z,97.10
2022-12-22T11:23:34.198Z,97.49
2022-12-22T11:26:56.543Z,95.94
2022-12-22T11:30:11.169Z,96.53
2022-12-22T11:33:32.378Z,96.90
2022-12-22T11:36:59.348Z,96.91
2022-12-22T11:40:21.821Z,96.39
2022-12-22T11:43:44.854Z,95.28
2022-12-22T11:47:00.953Z,97.30
2022-12-22T11:51:01.208Z,98.59
2022-12-22T11:54:13.499Z,98.05
2022-12-22T11:57:32.778Z,99.13
2022-12-22T12:01:14.930Z,99.26
2022-12-22T12:04:33.525Z,99.03
2022-12-22T12:07:49.620Z,96.50
2022-12-22T12:11:11.478Z,96.96
2022-12-22T12:14:28.333Z,95.75
2022-12-22T12:17:52.987Z,94.85
2022-12-22T12:21:17.657Z,93.61
2022-12-22T12:24:43.756Z,94.06
2022-12-22T12:28:06.373Z,95.14
2022-12-22T12:31:25.972Z,95.38
2022-12-22T12:34:40.934Z,95.76
2022-12-22T12:37:57.076Z,94.88
2022-12-22T12:41:20.035Z,95.33
2022-12-22T12:44:34.797Z,95.91
2022-12-22T12:47:44.976Z,96.46
2022-12-22T12:50:56.527Z,94.78
2022-12-22T12:54:23.406Z,93.56
2022-12-22T12:57:47.543Z,92.84
2022-12-22T13:00:59.089Z,93.59
2022-12-22T13:04:10.788Z,93.48
2022-12-22T13:07:47.412Z,92.67
2022-12-22T13:11:52.203Z,93.34
2022-12-22T13:14:57.780Z,93.13
2022-12-22T13:18:32.473Z,92.66
2022-12-22T13:21:54.273Z,91.42
2022-12-22T13:25:05.017Z,91.55
2022-12-22T13:28:17.380Z,92.22
2022-12-22T13:31:34.619Z,92.36
2022-12-22T13:35:28.516Z,91.99
2022-12-22T13:38:32.297Z,91.32
2022-12-22T13:41:44.656Z,89.80
2022-12-22T13:44:55.559Z,90.16
2022-12-22T13:48:13.660Z,90.42
2022-12-22T13:51:25.898Z,90.53
2022-12-22T13:54:39.504Z,90.51
2022-12-22T13:57:56.259Z,91.56
2022-12-22T14:01:18.176Z,91.86
2022-12-22T14:04:30.019Z,92.74
2022-12-22T14:07:40.088Z,93.11
2022-12-22T14:10:51.022Z,93.20
2022-12-22T14:14:01.008Z,93.46
2022-12-22T14:17:21.773Z,93.95
2022-12-22T14:20:36.423Z,93.31
2022-12-22T14:23:48.823Z,92.46
2022-12-22T14:26:59.378Z,93.23
2022-12-22T14:30:17.904Z,93.56
2022-12-22T14:33:31.137Z,93.42
2022-12-22T14:36:46.107Z,93.27
2022-12-22T14:39:57.003Z,93.64
2022-12-22T14:43:15.949Z,93.13
2022-12-22T14:46:25.879Z,93.16
2022-12-22T14:49:36.594Z,92.41
2022-12-22T14:52:51.172Z,91.46
2022-12-22T14:56:00.993Z,93.15
2022-12-22T14:59:12.620Z,92.89
2022-12-22T15:02:31.100Z,92.91
2022-12-22T15:05:45.447Z,93.61
2022-12-22T15:09:12.099Z,92.73
2022-12-22T15:12:21.985Z,93.82
2022-12-22T15:15:32.034Z,94.04
2022-12-22T15:18:42.375Z,94.02
2022-12-22T15:21:52.555Z,95.68
2022-12-22T15:25:03.588Z,95.71
2022-12-22T15:28:13.375Z,95.51
2022-12-22T15:31:23.387Z,96.11
2022-12-22T15:34:33.523Z,96.78
2022-12-22T15:37:43.402Z,97.30
2022-12-22T15:40:54.357Z,100.00
2022-12-22T15:44:04.513Z,100.00
2022-12-22T15:47:14.578Z,100.00
2022-12-22T15:50:27.147Z,100.00
2022-12-22T15:53:38.032Z,100.00
2022-12-22T15:56:53.390Z,100.00
2022-12-22T16:00:03.700Z,100.00
2022-12-22T16:03:14.731Z,100.00
2022-12-22T16:06:25.184Z,100.00
2022-12-22T16:09:40.900Z,100.00
2022-12-22T16:13:00.038Z,100.00
2022-12-22T16:16:09.910Z,100.00
2022-12-22T16:19:20.109Z,100.00
2022-12-22T16:22:34.420Z,100.00
2022-12-22T16:25:46.656Z,100.00
2022-12-22T16:28:59.441Z,100.00
2022-12-22T16:32:18.460Z,100.00
2022-12-22T16:35:30.448Z,100.00
2022-12-22T16:38:41.417Z,100.00
2022-12-22T16:42:00.010Z,100.00
2022-12-22T16:45:20.404Z,100.00
2022-12-22T16:48:35.251Z,100.00
2022-12-22T16:51:48.179Z,100.00
2022-12-22T16:54:57.838Z,100.00
2022-12-22T16:58:13.556Z,100.00
2022-12-22T17:01:36.235Z,100.00
2022-12-22T17:04:46.679Z,100.00
2022-12-22T17:07:57.259Z,100.00
2022-12-22T17:11:11.142Z,100.00
2022-12-22T17:14:29.147Z,100.00
2022-12-22T17:17:42.345Z,100.00
2022-12-22T17:20:55.259Z,100.00
2022-12-22T17:24:05.199Z,100.00
2022-12-22T17:27:15.463Z,100.00
2022-12-22T17:30:27.100Z,100.00
2022-12-22T17:33:38.032Z,100.00
2022-12-22T17:36:50.167Z,100.00
2022-12-22T17:40:02.689Z,100.00
2022-12-22T17:43:14.671Z,100.00
2022-12-22T17:46:25.317Z,100.00
2022-12-22T17:49:36.382Z,100.00
2022-12-22T17:52:47.214Z,100.00
2022-12-22T17:56:12.700Z,100.00
2022-12-22T17:59:23.362Z,100.00
2022-12-22T18:02:33.099Z,100.00
2022-12-22T18:05:49.320Z,100.00
2022-12-22T18:08:59.328Z,100.00
2022-12-22T18:12:16.786Z,100.00
2022-12-22T18:15:28.259Z,100.00
2022-12-22T18:18:37.991Z,100.00
2022-12-22T18:21:49.242Z,100.00
2022-12-22T18:24:59.048Z,100.00
2022-12-22T18:28:15.037Z,100.00
2022-12-22T18:31:25.447Z,100.00
2022-12-22T18:34:35.194Z,100.00
2022-12-22T18:37:46.363Z,100.00
2022-12-22T18:40:56.535Z,100.00
2022-12-22T18:44:11.019Z,100.00
2022-12-22T18:47:20.771Z,100.00
2022-12-22T18:50:32.022Z,100.00
2022-12-22T18:53:43.074Z,100.00
2022-12-22T18:56:53.638Z,100.00
2022-12-22T19:00:11.479Z,100.00
2022-12-22T19:03:25.908Z,100.00
2022-12-22T19:06:36.774Z,100.00
2022-12-22T19:09:48.567Z,100.00
2022-12-22T19:12:58.954Z,100.00
2022-12-22T19:16:11.510Z,100.00
2022-12-22T19:19:22.066Z,100.00
2022-12-22T19:22:31.838Z,100.00
2022-12-22T19:25:44.327Z,100.00
2022-12-22T19:28:57.226Z,100.00
2022-12-22T19:32:07.069Z,100.00
2022-12-22T19:35:19.031Z,100.00
2022-12-22T19:38:30.359Z,100.00
2022-12-22T19:41:44.704Z,100.00
2022-12-22T19:44:54.453Z,100.00
2022-12-22T19:48:05.616Z,100.00
2022-12-22T19:51:17.734Z,100.00
2022-12-22T19:54:28.073Z,100.00
2022-12-22T19:57:42.361Z,100.00
2022-12-22T20:00:52.786Z,100.00
2022-12-22T20:04:02.510Z,100.00
2022-12-22T20:07:16.624Z,100.00
2022-12-22T20:10:29.157Z,100.00
2022-12-22T20:13:41.267Z,100.00
2022-12-22T20:16:51.097Z,100.00
2022-12-22T20:20:00.883Z,100.00
2022-12-22T20:23:15.112Z,100.00
2022-12-22T20:26:27.493Z,100.00
2022-12-22T20:29:38.703Z,100.00
2022-12-22T20:32:48.789Z,100.00
2022-12-22T20:35:59.922Z,100.00
2022-12-22T20:39:14.295Z,100.00
2022-12-22T20:42:25.598Z,100.00
2022-12-22T20:45:36.769Z,100.00
2022-12-22T20:48:49.219Z,100.00
2022-12-22T20:51:58.858Z,100.00
2022-12-22T20:55:09.008Z,100.00
2022-12-22T20:58:22.652Z,100.00
2022-12-22T21:01:33.766Z,100.00
2022-12-22T21:04:43.643Z,100.00
2022-12-22T21:07:53.328Z,100.00
2022-12-22T21:11:02.993Z,100.00
2022-12-22T21:14:13.601Z,100.00
2022-12-22T21:17:24.681Z,100.00
2022-12-22T21:20:34.511Z,100.00
2022-12-22T21:23:44.148Z,100.00
